Time;durP1;ratioP1;P1;durP2;ratioP2;P2;SDS_P1;SDS_P2;PMS_P1;PMS_P2;Temp;Humidity;BMP_temperature;BMP_pressure;BME280_temperature;BME280_humidity;BME280_pressure;Samples;Min_cycle;Max_cycle;Signal;HPM_P1;HPM_P2
2022/10/01 00:00:56;;;;;;;4.62;2.90;;;;;;;23.03;51.04;101027.75;1784333;80;20979;-74
2022/10/01 00:03:24;;;;;;;5.37;3.05;;;;;;;23.03;51.07;101031.91;1750895;81;21114;-74
2022/10/01 00:06:13;;;;;;;4.58;2.58;;;;;;;23.05;51.08;101044.05;1750074;82;21108;-74
2022/10/01 00:08:40;;;;;;;3.70;2.83;;;;;;;23.04;51.07;101037.68;1749690;81;21056;-74
2022/10/01 00:11:11;;;;;;;7.58;4.08;;;;;;;23.03;51.05;101035.25;1749442;81;21038;-74
2022/10/01 00:13:38;;;;;;;4.30;3.08;;;;;;;23.03;51.03;101033.86;1743841;80;21084;-74
2022/10/01 00:16:07;;;;;;;5.65;3.55;;;;;;;23.03;51.04;101038.03;1743988;82;21160;-74
2022/10/01 00:18:38;;;;;;;8.43;3.50;;;;;;;23.03;51.04;101039.41;1744411;81;20993;-74
2022/10/01 00:21:09;;;;;;;9.33;4.35;;;;;;;23.03;51.05;101034.69;1744569;81;21196;-74
2022/10/01 00:23:36;;;;;;;4.90;3.50;;;;;;;23.02;51.05;101031.66;1744371;81;21008;-74
2022/10/01 00:26:19;;;;;;;5.00;3.08;;;;;;;23.02;51.04;101039.98;1744426;82;21077;-74
2022/10/01 00:28:47;;;;;;;7.30;4.10;;;;;;;23.01;51.03;101039.73;1744172;81;21269;-74
2022/10/01 00:31:14;;;;;;;5.87;3.80;;;;;;;23.02;51.04;101039.16;1744319;82;21042;-74
2022/10/01 00:33:41;;;;;;;5.67;3.87;;;;;;;23.01;51.04;101038.34;1713346;83;21099;-74
2022/10/01 00:36:08;;;;;;;7.60;3.90;;;;;;;23.01;51.04;101036.95;1744048;81;21546;-74
2022/10/01 00:38:36;;;;;;;6.40;3.65;;;;;;;23.01;51.05;101034.18;1744378;81;21113;-74
2022/10/01 00:41:03;;;;;;;6.30;4.00;;;;;;;23.02;51.04;101032.23;1725132;81;21838;-74
2022/10/01 00:43:32;;;;;;;7.75;3.83;;;;;;;23.01;51.04;101030.59;1719117;82;21012;-74
2022/10/01 00:46:03;;;;;;;5.97;4.17;;;;;;;23.01;51.04;101028.63;1747360;80;21052;-74
2022/10/01 00:48:29;;;;;;;5.72;3.90;;;;;;;23.01;51.04;101029.20;1747091;81;21579;-74
2022/10/01 00:50:56;;;;;;;6.03;3.87;;;;;;;23.00;51.02;101026.99;1738759;82;21068;-74
2022/10/01 00:53:22;;;;;;;6.47;3.95;;;;;;;23.00;51.02;101031.16;1699040;82;21209;-74
2022/10/01 00:55:54;;;;;;;4.75;3.67;;;;;;;23.00;51.02;101026.99;1739077;81;21108;-74
2022/10/01 00:58:20;;;;;;;6.83;3.65;;;;;;;23.01;51.02;101028.63;1719167;83;21018;-74
2022/10/01 01:00:47;;;;;;;7.10;3.65;;;;;;;23.00;51.01;101027.59;1698917;83;21487;-74
2022/10/01 01:03:14;;;;;;;7.35;4.15;;;;;;;23.00;50.98;101027.59;1719253;82;21017;-74
2022/10/01 01:05:40;;;;;;;5.55;3.85;;;;;;;23.01;51.00;101029.20;1698293;83;21567;-74
2022/10/01 01:08:06;;;;;;;6.05;3.83;;;;;;;22.99;50.99;101024.00;1718930;83;21538;-74
2022/10/01 01:10:44;;;;;;;7.28;3.50;;;;;;;22.99;50.99;101021.80;1698503;83;21025;-74
2022/10/01 01:13:25;;;;;;;8.18;4.28;;;;;;;22.99;50.99;101021.80;1743213;81;21583;-74
2022/10/01 01:16:01;;;;;;;6.10;4.15;;;;;;;23.00;50.97;101031.75;1746263;81;21084;-75
2022/10/01 01:18:54;;;;;;;6.62;3.70;;;;;;;22.99;50.96;101028.73;1745013;80;21108;-74
2022/10/01 01:21:42;;;;;;;6.17;4.00;;;;;;;22.99;50.93;101020.41;1745146;80;21053;-75
2022/10/01 01:24:29;;;;;;;7.58;4.10;;;;;;;22.98;50.94;101022.93;1744966;80;21069;-74
2022/10/01 01:27:20;;;;;;;7.37;3.90;;;;;;;22.97;50.93;101020.72;1745219;80;21008;-75
2022/10/01 01:29:52;;;;;;;;;;;;;;;22.97;50.93;101008.80;1746758;80;20992;-75
2022/10/01 01:32:24;;;;;;;4.30;3.17;;;;;;;22.96;50.93;101014.11;1723505;82;20423;-75
2022/10/01 01:34:51;;;;;;;6.00;3.75;;;;;;;22.94;50.93;101013.63;1737139;81;21009;-74
2022/10/01 01:37:19;;;;;;;5.03;3.50;;;;;;;22.95;50.96;101015.27;1739775;81;21041;-75
2022/10/01 01:39:49;;;;;;;5.08;3.40;;;;;;;22.94;50.95;101003.35;1772093;79;20994;-74
2022/10/01 01:42:21;;;;;;;6.70;3.90;;;;;;;22.95;50.97;101002.78;1801291;79;21076;-75
2022/10/01 01:44:47;;;;;;;5.95;3.30;;;;;;;22.95;50.95;101010.54;1739765;81;21212;-75
2022/10/01 01:47:13;;;;;;;6.72;3.55;;;;;;;22.95;50.95;101005.56;1801351;79;21079;-75
2022/10/01 01:49:40;;;;;;;5.10;3.40;;;;;;;22.95;50.96;101000.83;1772074;79;21040;-74
2022/10/01 01:52:12;;;;;;;5.75;4.12;;;;;;;22.94;50.96;101001.97;1739690;81;20930;-75
2022/10/01 01:54:39;;;;;;;5.08;3.60;;;;;;;22.96;50.95;101014.92;1739760;81;21088;-74
2022/10/01 01:57:06;;;;;;;5.62;3.42;;;;;;;22.97;50.96;101024.06;1739484;81;21181;-74
2022/10/01 01:59:37;;;;;;;6.17;4.05;;;;;;;22.96;50.97;101023.81;1739569;81;21287;-74
2022/10/01 02:02:01;;;;;;;6.97;3.90;;;;;;;22.96;50.96;101021.86;1739285;81;21009;-74
2022/10/01 02:04:32;;;;;;;5.33;3.77;;;;;;;22.96;50.95;101016.31;1801126;79;20982;-74
2022/10/01 02:07:34;;;;;;;5.92;3.52;;;;;;;22.97;50.96;101019.91;1801373;79;22139;-74
2022/10/01 02:10:36;;;;;;;4.85;3.35;;;;;;;22.97;50.95;101024.88;1696750;81;21194;-74
2022/10/01 02:13:31;;;;;;;6.67;3.60;;;;;;;22.96;50.94;101039.89;1763500;80;21041;-75
2022/10/01 02:16:13;;;;;;;6.78;3.87;;;;;;;22.95;50.89;101046.61;1780494;80;21542;-74
2022/10/01 02:19:18;;;;;;;6.80;3.92;;;;;;;22.95;50.89;101043.02;1785297;80;21075;-75
2022/10/01 02:21:55;;;;;;;9.13;3.83;;;;;;;22.94;50.88;101042.20;1702187;82;21060;-75
2022/10/01 02:24:42;;;;;;;4.75;3.65;;;;;;;22.95;50.87;101043.02;1700906;84;21652;-74
2022/10/01 02:27:28;;;;;;;4.87;3.60;;;;;;;22.94;50.88;101037.22;1754124;79;20981;-74
2022/10/01 02:29:56;;;;;;;6.47;4.03;;;;;;;22.92;50.89;101038.92;1779708;79;21478;-74
2022/10/01 02:32:23;;;;;;;5.67;3.62;;;;;;;22.91;50.90;101042.86;1776377;79;21068;-74
2022/10/01 02:34:49;;;;;;;4.55;3.47;;;;;;;22.92;50.94;101043.08;1776782;79;21088;-74
2022/10/01 02:37:21;;;;;;;6.42;3.50;;;;;;;22.93;50.92;101040.56;1766017;80;21036;-74
2022/10/01 02:39:48;;;;;;;7.83;3.65;;;;;;;22.93;50.92;101041.95;1766098;80;21499;-74
2022/10/01 02:42:15;;;;;;;8.08;3.77;;;;;;;22.94;50.87;101033.05;1776918;79;21033;-75
2022/10/01 02:44:42;;;;;;;4.78;3.47;;;;;;;22.94;50.90;101033.05;1776716;79;21598;-74
2022/10/01 02:47:28;;;;;;;5.58;3.30;;;;;;;22.94;50.87;101028.89;1776629;80;21382;-74
2022/10/01 02:49:54;;;;;;;6.05;3.22;;;;;;;22.93;50.92;101026.69;1775130;79;21104;-75
2022/10/01 02:52:28;;;;;;;4.95;3.42;;;;;;;22.94;50.89;101026.94;1776674;80;21025;-75
2022/10/01 02:55:17;;;;;;;4.00;3.37;;;;;;;22.94;50.91;101023.34;1775286;79;20985;-75
2022/10/01 02:57:43;;;;;;;4.78;3.65;;;;;;;22.93;50.89;101017.55;1776621;79;21129;-75
2022/10/01 03:00:12;;;;;;;6.10;3.75;;;;;;;22.93;50.89;101014.20;1766674;80;21068;-74
2022/10/01 03:02:39;;;;;;;5.15;3.42;;;;;;;22.94;50.86;101021.39;1776982;79;21033;-74
2022/10/01 03:05:06;;;;;;;6.22;3.45;;;;;;;22.94;50.87;101024.73;1776766;80;21016;-74
2022/10/01 03:07:36;;;;;;;5.45;3.40;;;;;;;22.94;50.88;101027.50;1750839;82;21032;-75
2022/10/01 03:10:03;;;;;;;6.53;4.08;;;;;;;22.94;50.89;101030.28;1750828;80;21044;-75
2022/10/01 03:12:30;;;;;;;6.40;3.30;;;;;;;22.94;50.86;101024.73;1751101;79;21055;-74
2022/10/01 03:14:56;;;;;;;4.87;3.60;;;;;;;22.95;50.86;101027.75;1755466;80;21043;-75
2022/10/01 03:17:22;;;;;;;5.53;3.55;;;;;;;22.94;50.84;101029.71;1755691;80;21037;-75
2022/10/01 03:19:48;;;;;;;6.87;3.52;;;;;;;22.95;50.83;101034.69;1755472;80;21033;-75
2022/10/01 03:22:18;;;;;;;4.72;3.27;;;;;;;22.95;50.83;101031.92;1755650;80;21041;-74
2022/10/01 03:24:44;;;;;;;5.08;3.27;;;;;;;22.95;50.83;101031.92;1755821;80;21053;-74
2022/10/01 03:27:10;;;;;;;4.83;3.20;;;;;;;22.95;50.83;101038.86;1755428;80;21174;-75
2022/10/01 03:29:36;;;;;;;5.10;3.30;;;;;;;22.95;50.82;101040.24;1755549;80;21652;-75
2022/10/01 03:32:03;;;;;;;5.65;3.83;;;;;;;22.95;50.80;101034.69;1744950;80;21067;-75
2022/10/01 03:34:29;;;;;;;5.15;3.10;;;;;;;22.95;50.80;101031.92;1744674;81;21033;-74
2022/10/01 03:36:55;;;;;;;5.50;3.40;;;;;;;22.95;50.79;101036.08;1755726;80;21606;-74
2022/10/01 03:39:21;;;;;;;6.15;3.42;;;;;;;22.96;50.78;101037.69;1745247;81;21222;-74
2022/10/01 03:41:48;;;;;;;4.80;3.35;;;;;;;22.95;50.79;101036.90;1744643;81;21045;-75
2022/10/01 03:44:14;;;;;;;5.55;3.67;;;;;;;22.95;50.75;101042.45;1782159;79;21024;-74
2022/10/01 03:46:47;;;;;;;6.25;3.55;;;;;;;22.95;50.79;101043.02;1781875;79;20985;-74
2022/10/01 03:49:13;;;;;;;5.08;3.37;;;;;;;22.95;50.78;101043.02;1781851;79;20984;-75
2022/10/01 03:51:39;;;;;;;6.33;3.27;;;;;;;22.94;50.77;101033.87;1782086;79;21173;-74
2022/10/01 03:54:06;;;;;;;5.08;3.55;;;;;;;22.95;50.78;101036.90;1760140;80;22294;-74
2022/10/01 03:56:33;;;;;;;5.75;3.60;;;;;;;22.94;50.75;101032.48;1759786;80;21020;-74
2022/10/01 03:59:00;;;;;;;4.05;3.33;;;;;;;22.94;50.74;101041.38;1782164;79;21401;-75
2022/10/01 04:01:26;;;;;;;5.95;3.67;;;;;;;22.95;50.73;101041.63;1782055;79;21020;-75
2022/10/01 04:03:53;;;;;;;6.40;3.75;;;;;;;22.95;50.75;101048.56;1781898;79;21840;-74
2022/10/01 04:06:19;;;;;;;5.67;3.47;;;;;;;22.94;50.73;101040.81;1795720;79;21016;-74
2022/10/01 04:08:45;;;;;;;6.00;3.25;;;;;;;22.94;50.72;101042.20;1782011;79;20960;-75
2022/10/01 04:11:11;;;;;;;4.72;3.27;;;;;;;22.94;50.73;101039.99;1759723;80;21586;-75
2022/10/01 04:13:38;;;;;;;6.83;3.55;;;;;;;22.94;50.72;101036.65;1781861;79;21072;-74
2022/10/01 04:16:05;;;;;;;5.45;3.70;;;;;;;22.93;50.73;101043.33;1782169;79;21798;-75
2022/10/01 04:18:32;;;;;;;5.45;3.42;;;;;;;22.94;50.72;101053.30;1796296;79;21021;-75
2022/10/01 04:20:58;;;;;;;5.80;3.77;;;;;;;22.93;50.71;101058.59;1798578;79;21547;-74
2022/10/01 04:23:24;;;;;;;4.58;3.50;;;;;;;22.94;50.71;101066.34;1798561;79;21025;-75
2022/10/01 04:25:50;;;;;;;6.50;3.20;;;;;;;22.94;50.73;101071.33;1798122;79;21006;-74
2022/10/01 04:28:16;;;;;;;4.45;3.12;;;;;;;22.95;50.71;101081.86;1798495;79;22113;-74
2022/10/01 04:30:44;;;;;;;4.22;3.00;;;;;;;22.94;50.70;101079.66;1798373;79;21009;-75
2022/10/01 04:33:13;;;;;;;5.95;3.30;;;;;;;22.94;50.69;101072.72;1758061;80;21514;-75
2022/10/01 04:35:40;;;;;;;4.17;3.15;;;;;;;22.94;50.71;101073.28;1758353;80;21032;-74
2022/10/01 04:38:11;;;;;;;5.17;3.50;;;;;;;22.93;50.70;101069.69;1758421;80;21586;-75
2022/10/01 04:40:37;;;;;;;5.25;3.17;;;;;;;22.94;50.68;101077.45;1757490;80;21232;-74
2022/10/01 04:43:04;;;;;;;4.67;3.22;;;;;;;22.93;50.69;101069.69;1758347;80;20977;-74
2022/10/01 04:45:31;;;;;;;7.67;3.00;;;;;;;22.92;50.70;101063.89;1747755;81;21043;-75
2022/10/01 04:47:58;;;;;;;7.42;3.45;;;;;;;22.93;50.68;101066.92;1747467;81;21029;-74
2022/10/01 04:50:25;;;;;;;5.15;3.00;;;;;;;22.92;50.68;101073.60;1758414;80;20966;-75
2022/10/01 04:52:52;;;;;;;6.28;3.30;;;;;;;22.93;50.69;101080.79;1758425;80;21122;-74
2022/10/01 04:55:19;;;;;;;7.62;3.98;;;;;;;22.92;50.68;101075.55;1769255;79;21079;-74
2022/10/01 04:57:45;;;;;;;5.30;3.27;;;;;;;22.93;50.68;101080.79;1782009;79;21665;-74
2022/10/01 05:00:16;;;;;;;7.08;3.98;;;;;;;22.92;50.68;101074.17;1782016;80;21016;-75
2022/10/01 05:02:46;;;;;;;6.92;3.50;;;;;;;22.92;50.65;101070.01;1781041;79;21099;-74
2022/10/01 05:05:13;;;;;;;5.92;3.08;;;;;;;22.92;50.66;101076.38;1795840;79;21134;-74
2022/10/01 05:07:39;;;;;;;6.83;3.22;;;;;;;22.92;50.74;101083.31;1795506;79;20982;-74
2022/10/01 05:10:09;;;;;;;5.50;3.20;;;;;;;22.92;50.65;101086.66;1781707;79;21499;-75
2022/10/01 05:12:35;;;;;;;7.40;3.35;;;;;;;22.92;50.64;101082.49;1775627;79;21092;-75
2022/10/01 05:15:02;;;;;;;6.37;3.60;;;;;;;22.91;50.65;101076.72;1761470;80;21675;-74
2022/10/01 05:17:31;;;;;;;5.85;3.20;;;;;;;22.92;50.65;101082.49;1805958;79;21916;-75
2022/10/01 05:19:56;;;;;;;5.87;3.98;;;;;;;22.92;50.63;101088.05;1806212;79;21000;-75
2022/10/01 05:22:23;;;;;;;7.17;3.37;;;;;;;22.92;50.64;101085.27;1804435;79;21048;-75
2022/10/01 05:24:49;;;;;;;5.83;4.00;;;;;;;22.92;50.67;101086.09;1744230;81;21054;-74
2022/10/01 05:27:15;;;;;;;7.58;4.35;;;;;;;22.93;50.66;101091.89;1754831;80;21577;-75
2022/10/01 05:29:41;;;;;;;6.67;4.00;;;;;;;22.92;50.63;101090.25;1741395;81;21103;-74
2022/10/01 05:32:08;;;;;;;5.55;3.30;;;;;;;22.92;50.65;101093.59;1819385;78;21020;-75
2022/10/01 05:34:35;;;;;;;7.25;4.50;;;;;;;22.94;50.66;101105.20;1785777;80;21004;-75
2022/10/01 05:37:01;;;;;;;6.60;4.70;;;;;;;22.93;50.66;101100.78;1786401;80;21059;-74
2022/10/01 05:39:29;;;;;;;7.75;4.37;;;;;;;22.92;50.66;101105.52;1786192;79;21242;-75
2022/10/01 05:41:56;;;;;;;5.40;3.60;;;;;;;22.92;50.64;101102.73;1786568;79;21154;-74
2022/10/01 05:44:23;;;;;;;9.35;4.65;;;;;;;22.93;50.63;101107.15;1786396;79;20981;-75
2022/10/01 05:46:49;;;;;;;6.80;4.20;;;;;;;22.93;50.62;101107.15;1785651;80;21031;-75
2022/10/01 05:49:23;;;;;;;7.20;4.08;;;;;;;22.92;50.65;101106.08;1785715;80;21064;-74
2022/10/01 05:51:49;;;;;;;7.05;4.40;;;;;;;22.93;50.67;101108.54;1785951;80;21048;-75
2022/10/01 05:54:18;;;;;;;6.87;4.30;;;;;;;22.92;50.65;101111.63;1786167;80;21170;-74
2022/10/01 05:56:43;;;;;;;9.35;4.53;;;;;;;22.92;50.67;101118.00;1726411;81;21462;-74
2022/10/01 05:59:10;;;;;;;5.28;3.92;;;;;;;22.94;50.64;101119.07;1753972;81;21083;-74
2022/10/01 06:01:43;;;;;;;5.28;3.87;;;;;;;22.93;50.67;101121.02;1786285;80;21055;-76
2022/10/01 06:04:09;;;;;;;5.97;3.83;;;;;;;22.94;50.67;101114.91;1773923;80;20994;-75
2022/10/01 06:06:35;;;;;;;6.33;4.12;;;;;;;22.94;50.67;101121.84;1755346;81;21678;-74
2022/10/01 06:09:02;;;;;;;6.35;3.52;;;;;;;22.94;50.67;101117.69;1724084;81;21032;-74
2022/10/01 06:11:28;;;;;;;6.28;4.10;;;;;;;22.94;50.67;101105.20;1786689;80;21072;-75
2022/10/01 06:13:54;;;;;;;7.85;3.95;;;;;;;22.93;50.68;101091.89;1767499;80;21057;-74
2022/10/01 06:16:21;;;;;;;5.75;4.08;;;;;;;22.94;50.68;101094.91;1739400;82;21014;-74
2022/10/01 06:18:48;;;;;;;5.92;4.03;;;;;;;22.94;50.68;101090.75;1775436;80;21153;-74
2022/10/01 06:21:15;;;;;;;5.72;4.03;;;;;;;22.95;50.68;101092.39;1808428;79;21041;-74
2022/10/01 06:23:49;;;;;;;5.75;4.05;;;;;;;22.95;50.69;101095.17;1808200;79;21053;-74
2022/10/01 06:26:15;;;;;;;5.53;3.95;;;;;;;22.95;50.69;101101.28;1749490;81;21068;-75
2022/10/01 06:28:42;;;;;;;6.58;3.70;;;;;;;22.95;50.69;101106.83;1770098;81;21045;-74
2022/10/01 06:31:08;;;;;;;6.42;3.70;;;;;;;22.95;50.69;101097.13;1770050;80;21158;-75
2022/10/01 06:33:34;;;;;;;6.78;3.98;;;;;;;22.95;50.69;101087.41;1748592;81;21099;-75
2022/10/01 06:36:02;;;;;;;5.78;3.70;;;;;;;22.96;50.71;101083.47;1770273;80;21504;-75
2022/10/01 06:38:29;;;;;;;5.87;3.75;;;;;;;22.95;50.71;101087.41;1770003;80;21049;-75
2022/10/01 06:40:58;;;;;;;7.70;4.30;;;;;;;22.95;50.73;101081.30;1770412;81;21504;-75
2022/10/01 06:43:25;;;;;;;5.58;3.60;;;;;;;22.96;50.72;101080.70;1770268;80;21225;-74
2022/10/01 06:45:51;;;;;;;5.92;4.17;;;;;;;22.97;50.71;101071.23;1770001;80;21001;-74
2022/10/01 06:48:18;;;;;;;4.42;3.52;;;;;;;22.95;50.72;101068.81;1770526;80;21075;-74
2022/10/01 06:50:46;;;;;;;6.12;3.75;;;;;;;22.97;50.73;101062.91;1770020;81;21520;-75
2022/10/01 06:53:16;;;;;;;7.08;3.72;;;;;;;22.96;50.72;101056.55;1770224;81;21033;-74
2022/10/01 06:55:42;;;;;;;7.17;3.85;;;;;;;22.96;50.74;101064.05;1770419;80;21460;-79
2022/10/01 06:58:16;;;;;;;6.65;3.87;;;;;;;22.96;50.73;101053.77;1770402;81;21041;-79
2022/10/01 07:00:48;;;;;;;5.65;4.03;;;;;;;22.96;50.74;101044.63;1770231;81;21052;-79
2022/10/01 07:03:18;;;;;;;6.45;3.52;;;;;;;22.96;50.73;101058.50;1770314;81;21001;-80
2022/10/01 07:05:45;;;;;;;4.87;3.60;;;;;;;22.96;50.73;101058.50;1769537;80;21076;-79
2022/10/01 07:08:11;;;;;;;6.28;3.80;;;;;;;22.97;50.74;101067.08;1748220;81;21171;-79
2022/10/01 07:10:38;;;;;;;5.10;3.83;;;;;;;22.96;50.73;101055.16;1770011;80;21044;-79
2022/10/01 07:13:10;;;;;;;5.05;3.62;;;;;;;22.98;50.74;101053.45;1770347;80;20938;-78
2022/10/01 07:15:37;;;;;;;6.58;4.10;;;;;;;22.97;50.74;101058.18;1774828;80;21206;-78
2022/10/01 07:18:04;;;;;;;5.37;4.00;;;;;;;22.98;50.75;101063.16;1775765;80;21632;-79
2022/10/01 07:20:34;;;;;;;5.87;4.20;;;;;;;22.99;50.76;101066.19;1775585;80;21041;-78
2022/10/01 07:22:59;;;;;;;5.28;3.75;;;;;;;22.99;50.76;101065.62;1744088;82;20988;-78
2022/10/01 07:25:25;;;;;;;5.67;3.72;;;;;;;22.99;50.74;101065.62;1743294;82;21093;-78
2022/10/01 07:28:00;;;;;;;6.85;4.25;;;;;;;22.98;50.75;101063.98;1775752;80;21486;-79
2022/10/01 07:30:27;;;;;;;7.20;3.80;;;;;;;23.01;50.73;101069.44;1774587;80;21546;-78
2022/10/01 07:32:53;;;;;;;6.20;3.98;;;;;;;23.00;50.76;101069.22;1775700;80;21875;-77
2022/10/01 07:35:20;;;;;;;5.87;3.90;;;;;;;23.00;50.78;101074.77;1775684;80;21105;-78
2022/10/01 07:37:47;;;;;;;5.53;3.45;;;;;;;23.01;50.76;101080.53;1775482;80;21083;-78
2022/10/01 07:40:17;;;;;;;5.20;3.45;;;;;;;23.02;50.76;101076.63;1775731;80;21084;-78
2022/10/01 07:42:56;;;;;;;4.92;3.47;;;;;;;23.02;50.77;101072.47;1775628;80;21076;-78
2022/10/01 07:45:21;;;;;;;5.05;3.50;;;;;;;23.02;50.75;101066.91;1774510;80;21080;-78
2022/10/01 07:47:53;;;;;;;4.87;3.52;;;;;;;23.02;50.75;101064.95;1775622;80;21072;-78
2022/10/01 07:50:19;;;;;;;6.58;3.85;;;;;;;23.03;50.75;101061.62;1775800;80;21566;-78
2022/10/01 07:52:54;;;;;;;5.55;3.77;;;;;;;23.02;50.75;101064.95;1775430;80;21047;-78
2022/10/01 07:55:22;;;;;;;6.25;3.40;;;;;;;23.03;50.74;101060.23;1775634;80;21047;-78
2022/10/01 07:57:56;;;;;;;6.33;3.75;;;;;;;23.02;50.75;101058.59;1777175;79;21800;-78
2022/10/01 08:00:26;;;;;;;6.80;3.70;;;;;;;23.02;50.74;101057.20;1755559;80;21412;-78
2022/10/01 08:02:54;;;;;;;6.42;3.75;;;;;;;23.02;50.75;101048.31;1755279;80;21041;-79
2022/10/01 08:05:25;;;;;;;5.22;3.58;;;;;;;23.02;50.75;101041.38;1755626;80;21005;-79
2022/10/01 08:07:51;;;;;;;5.37;4.05;;;;;;;23.02;50.74;101032.23;1755773;80;21537;-78
2022/10/01 08:10:25;;;;;;;5.55;3.72;;;;;;;23.02;50.75;101037.20;1755396;80;22015;-79
2022/10/01 08:12:51;;;;;;;6.50;4.05;;;;;;;23.03;50.75;101036.64;1755650;80;21006;-79
2022/10/01 08:15:18;;;;;;;4.67;3.60;;;;;;;23.01;50.75;101035.56;1761463;80;21053;-79
2022/10/01 08:17:44;;;;;;;6.37;3.80;;;;;;;23.03;50.75;101038.84;1748074;81;21084;-80
2022/10/01 08:20:12;;;;;;;5.72;3.60;;;;;;;23.03;50.74;101038.03;1767336;80;21033;-79
2022/10/01 08:22:38;;;;;;;6.78;4.33;;;;;;;23.03;50.73;101043.58;1767901;80;21078;-79
2022/10/01 08:25:06;;;;;;;6.67;4.45;;;;;;;23.04;50.75;101041.05;1772664;81;20998;-79
2022/10/01 08:27:33;;;;;;;4.97;3.35;;;;;;;23.04;50.74;101041.84;1772972;80;21586;-78
2022/10/01 08:29:59;;;;;;;6.72;4.03;;;;;;;23.04;50.71;101036.89;1773181;80;21098;-79
2022/10/01 08:32:26;;;;;;;4.72;3.45;;;;;;;23.05;50.72;101035.72;1772678;80;21013;-79
2022/10/01 08:34:56;;;;;;;6.17;3.75;;;;;;;23.04;50.74;101035.50;1772991;80;21294;-79
2022/10/01 08:37:28;;;;;;;5.53;3.30;;;;;;;23.05;50.73;101034.34;1717203;80;21116;-79
2022/10/01 08:39:55;;;;;;;6.05;3.80;;;;;;;23.06;50.69;101027.08;1735746;82;21049;-79
2022/10/01 08:42:33;;;;;;;8.68;3.42;;;;;;;23.05;50.70;101012.95;1735929;81;21053;-79
2022/10/01 08:45:06;;;;;;;4.08;3.50;;;;;;;23.06;50.69;101013.77;1735010;81;21526;-79
2022/10/01 08:47:35;;;;;;;6.28;3.77;;;;;;;23.05;50.68;101010.17;1735852;82;21850;-79
2022/10/01 08:50:27;;;;;;;7.12;3.80;;;;;;;23.05;50.69;101007.41;1735683;82;37990;-79
2022/10/01 08:52:58;;;;;;;4.58;3.62;;;;;;;23.06;50.68;101001.28;1736280;82;21610;-79
2022/10/01 08:55:27;;;;;;;4.75;3.47;;;;;;;23.05;50.67;100993.53;1735953;81;20982;-79
2022/10/01 08:57:59;;;;;;;6.58;4.05;;;;;;;23.05;50.67;100994.91;1736281;82;21598;-80
2022/10/01 09:00:25;;;;;;;5.97;3.72;;;;;;;23.06;50.67;100990.19;1736255;81;21124;-79
2022/10/01 09:02:51;;;;;;;4.25;3.45;;;;;;;23.06;50.67;100991.57;1715051;82;21045;-79
2022/10/01 09:05:32;;;;;;;4.97;3.70;;;;;;;23.07;50.66;100979.33;1736250;82;21033;-78
2022/10/01 09:08:05;;;;;;;;;;;;;;;23.07;50.67;100968.23;1738067;82;21057;-79
2022/10/01 09:10:54;;;;;;;3.70;2.95;;;;;;;23.07;50.66;100964.07;1735729;82;20306;-79
2022/10/01 09:13:50;;;;;;;4.53;3.42;;;;;;;23.05;50.66;100965.78;1746727;79;21971;-79
2022/10/01 09:16:28;;;;;;;6.53;3.52;;;;;;;23.05;50.66;100955.24;1751296;80;21060;-79
2022/10/01 09:19:37;;;;;;;5.12;3.60;;;;;;;23.06;50.63;100952.72;1751363;80;21597;-79
2022/10/01 09:22:12;;;;;;;4.70;3.67;;;;;;;23.06;50.65;100954.92;1751641;80;21064;-80
2022/10/01 09:24:48;;;;;;;5.92;3.80;;;;;;;23.05;50.62;100951.91;1751116;81;21040;-79
2022/10/01 09:27:18;;;;;;;4.60;3.60;;;;;;;23.06;50.63;100949.95;1751601;80;21985;-79
2022/10/01 09:29:50;;;;;;;5.85;3.87;;;;;;;23.05;50.66;100960.80;1727713;82;21024;-79
2022/10/01 09:32:24;;;;;;;5.12;3.37;;;;;;;23.06;50.67;100955.49;1751599;80;21016;-79
2022/10/01 09:34:50;;;;;;;6.17;3.70;;;;;;;23.06;50.66;100952.72;1751226;80;21650;-79
2022/10/01 09:37:31;;;;;;;6.10;3.83;;;;;;;23.06;50.67;100954.92;1751559;80;21039;-79
2022/10/01 09:40:18;;;;;;;6.17;3.60;;;;;;;23.07;50.67;100955.74;1748139;80;21678;-80
2022/10/01 09:42:46;;;;;;;6.17;4.22;;;;;;;23.07;50.66;100959.34;1751661;80;21100;-80
2022/10/01 09:45:14;;;;;;;5.03;3.10;;;;;;;23.07;50.65;100960.73;1751352;80;21020;-77
2022/10/01 09:47:43;;;;;;;4.87;3.85;;;;;;;23.07;50.66;100948.23;1755842;80;21048;-78
2022/10/01 09:50:14;;;;;;;6.12;3.70;;;;;;;23.07;50.66;100951.02;1734769;82;21027;-78
2022/10/01 09:52:40;;;;;;;4.58;3.08;;;;;;;23.08;50.66;100944.89;1814227;79;21266;-79
2022/10/01 09:55:28;;;;;;;4.78;3.60;;;;;;;23.08;50.66;100945.72;1814268;78;20945;-79
2022/10/01 09:58:12;;;;;;;4.47;3.02;;;;;;;23.08;50.65;100942.12;1814064;78;21075;-80
2022/10/01 10:00:39;;;;;;;4.78;3.15;;;;;;;23.08;50.66;100946.28;1782844;78;21040;-80
2022/10/01 10:03:06;;;;;;;6.12;3.87;;;;;;;23.10;50.64;100938.42;1814184;78;21641;-80
2022/10/01 10:05:45;;;;;;;4.37;3.30;;;;;;;23.08;50.65;100924.08;1782737;78;21206;-80
2022/10/01 10:08:15;;;;;;;4.87;3.60;;;;;;;23.07;50.64;100923.27;1813986;78;21146;-78
2022/10/01 10:10:53;;;;;;;5.37;3.60;;;;;;;23.08;50.65;100915.75;1814493;78;21040;-77
2022/10/01 10:13:38;;;;;;;5.92;3.40;;;;;;;23.09;50.65;100927.07;1813767;79;21025;-79
2022/10/01 10:16:31;;;;;;;3.92;3.02;;;;;;;23.09;50.65;100917.36;1811065;79;21005;-79
2022/10/01 10:19:10;;;;;;;4.47;3.20;;;;;;;23.09;50.65;100915.97;1807624;79;21299;-79
2022/10/01 10:21:36;;;;;;;5.28;3.15;;;;;;;23.09;50.63;100919.56;1750472;80;21479;-77
2022/10/01 10:24:11;;;;;;;7.05;4.08;;;;;;;23.08;50.65;100905.47;1665997;83;21152;-78
2022/10/01 10:26:38;;;;;;;5.83;3.10;;;;;;;23.08;50.64;100902.70;1662745;83;21167;-79
2022/10/01 10:29:07;;;;;;;4.90;3.30;;;;;;;23.07;50.66;100909.39;1746670;80;21017;-79
2022/10/01 10:31:41;;;;;;;6.60;3.17;;;;;;;23.08;50.66;100899.92;1738328;81;21135;-79
2022/10/01 10:34:20;;;;;;;4.28;3.27;;;;;;;23.09;50.66;100895.98;1739409;82;21037;-78
2022/10/01 10:36:47;;;;;;;6.40;3.30;;;;;;;23.09;50.65;100902.91;1775396;80;21486;-79
2022/10/01 10:39:23;;;;;;;6.30;3.08;;;;;;;23.09;50.67;100900.14;1775697;80;21044;-79
2022/10/01 10:41:50;;;;;;;4.33;3.00;;;;;;;23.09;50.68;100891.00;1745934;80;21017;-79
2022/10/01 10:44:20;;;;;;;5.33;3.37;;;;;;;23.09;50.69;100891.81;1775759;80;21078;-79
2022/10/01 10:46:44;;;;;;;5.40;3.17;;;;;;;23.11;50.68;100895.66;1775433;80;21080;-79
2022/10/01 10:49:28;;;;;;;4.00;3.02;;;;;;;23.10;50.69;100896.23;1718918;82;21033;-79
2022/10/01 10:51:56;;;;;;;6.45;3.42;;;;;;;23.11;50.70;100894.27;1737960;82;21056;-79
2022/10/01 10:54:31;;;;;;;5.50;3.40;;;;;;;23.11;50.69;100890.11;1770189;81;21021;-79
2022/10/01 10:57:20;;;;;;;3.90;3.47;;;;;;;23.11;50.68;100884.55;1747933;81;21305;-78
2022/10/01 11:00:15;;;;;;;4.80;3.05;;;;;;;23.10;50.67;100878.19;1753572;81;21000;-78
2022/10/01 11:03:05;;;;;;;5.85;3.22;;;;;;;23.10;50.67;100871.25;1739804;81;21067;-78
2022/10/01 11:05:33;;;;;;;3.98;3.12;;;;;;;23.11;50.65;100873.45;1740079;81;21020;-78
2022/10/01 11:08:02;;;;;;;5.28;3.00;;;;;;;23.11;50.65;100863.74;1739639;81;21581;-78
2022/10/01 11:10:53;;;;;;;5.05;3.35;;;;;;;23.10;50.66;100866.27;1740053;81;21506;-79
2022/10/01 11:13:48;;;;;;;3.83;2.87;;;;;;;23.11;50.68;100863.74;1739883;81;21020;-79
2022/10/01 11:16:31;;;;;;;4.80;3.10;;;;;;;23.10;50.67;100861.53;1770981;79;21080;-78
2022/10/01 11:19:29;;;;;;;4.25;2.98;;;;;;;23.09;50.69;100861.28;1739568;81;21073;-79
2022/10/01 11:22:04;;;;;;;4.70;3.30;;;;;;;23.09;50.69;100865.45;1801295;79;21052;-78
2022/10/01 11:25:01;;;;;;;5.25;2.70;;;;;;;23.09;50.67;100864.06;1801147;79;21511;-79
2022/10/01 11:27:39;;;;;;;3.15;2.70;;;;;;;23.10;50.69;100857.94;1801253;79;20926;-79
2022/10/01 11:30:23;;;;;;;3.83;3.12;;;;;;;23.10;50.67;100859.33;1801128;78;21037;-79
2022/10/01 11:33:19;;;;;;;6.17;3.10;;;;;;;23.09;50.68;100856.30;1739515;81;21037;-79
2022/10/01 11:36:17;;;;;;;4.47;2.80;;;;;;;23.09;50.68;100849.37;1706958;83;21592;-78
2022/10/01 11:39:00;;;;;;;3.08;2.72;;;;;;;23.09;50.68;100845.20;1670536;84;21585;-78
2022/10/01 11:41:46;;;;;;;4.05;3.02;;;;;;;23.09;50.70;100839.66;1701112;82;21602;-79
2022/10/01 11:44:32;;;;;;;6.12;3.25;;;;;;;23.08;50.70;100826.38;1729036;82;21025;-78
2022/10/01 11:47:12;;;;;;;6.45;3.00;;;;;;;23.08;50.71;100820.83;1728800;83;20986;-80